Latest Weather Observations for Norfolk Island

IDN60801

Issued at 11:33 am EST Thursday 1 September 2016 (issued every 30 minutes, with the page automatically refreshed every 10 minutes)

About weather observations | Map of weather stations | Latest weather observations for NSW | Other Formats
Station Details ID: 200288 Name: NORFOLK ISLAND AERO Lat: -29.04 Lon: 167.94 Height: 111.73 m
Data from the previous 72 hours. | See also: Recent months at Norfolk Island
Date/Time
EST
Temp
°C
App
Temp
°C
Dew
Point
°C
Rel
Hum
%
Delta-T
°C
Wind Press
QNH
hPa
Press
MSL
hPa
Rain since
9am
mm
Dir  Spd
km/h
Gust
km/h
Spd
kts
Gust
kts
01/11:00am 18.0 14.9 7.3 49 5.4 ENE 13 19 7 10 1025.7 1025.5 0.0
01/10:30am 18.6 15.4 8.3 51 5.3 ENE 15 22 8 12 1025.9 1025.7 0.0
01/10:00am 18.3 14.7 8.2 51 5.2 ENE 17 28 9 15 1026.1 1025.9 0.0
01/09:30am 18.8 15.4 9.1 53 5.1 ENE 17 22 9 12 1026.5 1026.4 0.0
01/09:00am 18.2 14.4 7.5 49 5.4 NE 17 24 9 13 1026.5 1026.4 0.0
01/08:30am 18.2 14.3 8.5 53 5.0 ENE 19 26 10 14 1026.4 1026.3 0.0
01/08:00am 17.1 17.4 17.1 100 0.0 NE 11 19 6 10 1026.4 1026.3 0.0
01/07:30am 17.3 15.4 9.0 58 4.3 N 9 15 5 8 1026.4 1026.3 0.0
01/07:00am 16.7 14.5 9.2 61 3.9 NNE 11 17 6 9 1026.3 1026.2 0.0
01/06:30am 16.3 15.0 9.8 65 3.4 NNE 7 9 4 5 1026.2 1026.1 0.0
01/06:00am 16.1 14.0 9.8 66 3.3 NE 11 15 6 8 1025.7 1025.6 0.0
01/05:30am 15.5 14.4 8.4 62 3.6 ENE 4 7 2 4 1025.3 1025.1 0.0
01/05:00am 16.0 14.2 7.8 58 4.1 NE 7 11 4 6 1025.2 1025.0 0.0
01/04:30am 15.6 14.0 8.7 63 3.5 NE 7 11 4 6 1025.1 1024.9 0.0
01/04:00am 15.7 13.7 8.6 62 3.6 NE 9 13 5 7 1025.0 1024.8 0.0
01/03:30am 15.4 13.7 10.0 70 2.8 E 9 11 5 6 1024.8 1024.6 0.0
01/03:00am 15.0 12.9 9.8 71 2.7 ENE 11 13 6 7 1024.9 1024.7 0.0
01/02:30am 15.5 13.7 9.5 67 3.1 E 9 13 5 7 1025.1 1024.9 0.0
01/02:00am 15.3 13.1 9.5 68 3.0 E 11 13 6 7 1025.2 1025.0 0.0
01/01:30am 15.6 13.8 9.4 66 3.2 ENE 9 11 5 6 1025.5 1025.3 0.0
01/01:00am 15.7 13.6 9.7 67 3.1 E 11 17 6 9 1025.9 1025.8 0.0
01/12:30am 15.7 13.5 7.7 59 4.0 ESE 9 11 5 6 1026.3 1026.2 0.0
01/12:00am 15.7 13.2 8.4 62 3.7 E 11 17 6 9 1026.6 1026.5 0.0
 
Date/Time
EST
Temp
°C
App
Temp
°C
Dew
Point
°C
Rel
Hum
%
Delta-T
°C
Wind Press
QNH
hPa
Press
MSL
hPa
Rain since
9am
mm
Dir  Spd
km/h
Gust
km/h
Spd
kts
Gust
kts
31/11:30pm 15.2 12.9 7.3 59 3.9 E 9 11 5 6 1026.5 1026.4 0.0
31/11:00pm 15.3 12.4 6.7 56 4.2 ENE 11 19 6 10 1026.6 1026.5 0.0
31/10:30pm 15.6 12.3 6.3 54 4.5 ESE 13 17 7 9 1026.6 1026.5 0.0
31/10:00pm 15.6 12.2 6.1 53 4.6 E 13 19 7 10 1026.7 1026.6 0.0
31/09:30pm 15.9 12.9 7.7 58 4.1 E 13 19 7 10 1027.0 1026.9 0.0
31/09:00pm 15.7 13.9 9.5 66 3.2 E 9 17 5 9 1027.2 1027.1 0.0
31/08:30pm 15.8 13.4 8.7 62 3.6 ESE 11 15 6 8 1027.6 1027.5 0.0
31/08:00pm 15.8 13.7 8.3 61 3.8 E 9 13 5 7 1027.7 1027.6 0.0
31/07:30pm 16.0 13.2 7.1 55 4.4 ESE 11 17 6 9 1027.7 1027.6 0.0
31/07:00pm 15.8 12.7 7.1 56 4.3 ESE 13 19 7 10 1027.6 1027.5 0.0
31/06:30pm 16.1 12.6 7.0 54 4.5 ESE 15 20 8 11 1027.5 1027.4 0.0
31/06:00pm 16.2 13.1 7.1 55 4.5 SE 13 19 7 10 1027.1 1027.0 0.0
31/05:30pm 16.1 13.4 7.5 56 4.3 ESE 11 17 6 9 1026.9 1026.8 0.0
31/05:00pm 16.2 13.1 7.1 55 4.5 ESE 13 19 7 10 1026.5 1026.4 0.0
31/04:30pm 16.0 12.3 7.8 58 4.1 ESE 17 26 9 14 1026.3 1026.2 0.0
31/04:00pm 16.3 14.0 8.9 61 3.8 ESE 11 17 6 9 1026.3 1026.2 0.0
31/03:30pm 16.7 13.6 8.9 60 4.0 ESE 15 20 8 11 1026.1 1026.0 0.0
31/03:00pm 16.7 13.4 8.0 56 4.4 ESE 15 19 8 10 1026.2 1026.1 0.0
31/02:30pm 17.4 14.0 7.5 52 5.0 ESE 15 20 8 11 1026.1 1026.0 0.0
31/02:00pm 18.5 15.0 7.2 47 5.7 ESE 15 26 8 14 1025.9 1025.8 0.0
31/01:30pm 17.6 14.3 8.0 53 4.9 ESE 15 22 8 12 1026.2 1026.1 0.0
31/01:00pm 17.8 14.5 8.0 52 5.0 ESE 15 22 8 12 1026.2 1026.1 0.0
31/12:30pm 17.9 15.6 10.4 61 4.0 E 13 19 7 10 1026.3 1026.2 0.0
31/12:00pm 17.3 14.5 9.9 62 3.9 E 15 19 8 10 1026.5 1026.4 0.0
31/11:30am 17.6 15.6 10.0 61 4.0 SE 11 17 6 9 1027.0 1026.9 0.0
31/11:00am 17.2 13.6 9.8 61 3.9 E 19 30 10 16 1027.5 1027.4 0.0
31/10:30am 16.0 14.9 12.0 77 2.2 ESE 9 19 5 10 1028.0 1027.9 0.0
31/10:00am 17.0 13.1 10.8 67 3.3 ESE 22 32 12 17 1028.1 1028.0 0.0
31/09:30am 18.1 14.4 9.5 57 4.5 SE 19 26 10 14 1027.9 1027.8 0.0
31/09:00am 18.0 14.3 9.6 58 4.4 ESE 19 26 10 14 1028.1 1028.0 0.0
31/08:30am 17.4 13.7 9.6 60 4.1 ESE 19 30 10 16 1028.0 1027.9 0.0
31/08:00am 16.5 13.2 9.6 63 3.6 SE 17 28 9 15 1027.9 1027.8 0.0
31/07:30am 16.5 12.8 9.4 63 3.7 ESE 19 33 10 18 1027.7 1027.6 0.0
31/07:00am 16.2 13.5 8.8 61 3.8 SE 13 22 7 12 1027.6 1027.5 0.0
31/06:30am 15.8 11.9 8.5 62 3.7 ESE 19 32 10 17 1027.5 1027.4 0.0
31/06:00am 15.5 12.4 8.8 64 3.4 ESE 15 24 8 13 1027.1 1027.0 0.0
31/05:30am 15.0 11.2 9.1 68 3.0 SE 19 26 10 14 1026.8 1026.7 0.0
31/05:00am 13.9 12.5 10.9 82 1.6 ENE 9 11 5 6 1026.4 1026.3 0.0
31/04:47am 13.9 12.6 11.1 83 1.5 ESE 9 11 5 6 1026.6 1026.5 0.0
31/04:36am 13.8 11.7 11.0 83 1.5 ESE 13 24 7 13 1026.8 1026.7 0.0
31/04:30am 14.1 10.6 10.3 78 2.0 SE 19 30 10 16 1026.7 1026.6 0.0
31/04:00am 15.3 11.5 7.7 60 3.8 SSE 17 24 9 13 1026.2 1026.1 0.0
31/03:30am 15.5 12.0 7.0 57 4.2 SE 15 20 8 11 1026.0 1025.9 0.0
31/03:00am 15.4 11.9 7.1 57 4.1 SE 15 24 8 13 1025.7 1025.6 0.0
31/02:30am 15.2 12.1 7.1 58 4.0 SE 13 24 7 13 1025.7 1025.6 0.0
31/02:00am 14.9 10.5 4.9 51 4.7 SE 17 24 9 13 1025.7 1025.6 0.0
31/01:30am 15.3 11.9 5.9 53 4.5 SE 13 17 7 9 1025.7 1025.6 0.0
31/01:00am 14.9 10.1 5.7 54 4.4 SE 20 28 11 15 1025.9 1025.8 0.0
31/12:30am 15.4 10.4 6.3 54 4.4 SSE 22 30 12 16 1026.3 1026.2 0.0
31/12:00am 15.1 10.7 9.0 67 3.1 SE 22 35 12 19 1026.6 1026.5 0.0
 
Date/Time
EST
Temp
°C
App
Temp
°C
Dew
Point
°C
Rel
Hum
%
Delta-T
°C
Wind Press
QNH
hPa
Press
MSL
hPa
Rain since
9am
mm
Dir  Spd
km/h
Gust
km/h
Spd
kts
Gust
kts
30/11:30pm 15.5 11.3 7.4 58 4.0 SSE 19 30 10 16 1026.7 1026.6 0.0
30/11:00pm 15.4 10.6 5.5 51 4.7 SSE 20 30 11 16 1026.6 1026.5 0.0
30/10:30pm 15.4 11.3 8.5 63 3.5 SE 20 32 11 17 1026.4 1026.3 0.0
30/10:00pm 15.3 11.6 9.3 67 3.1 SSE 19 30 10 16 1026.5 1026.4 0.0
30/09:30pm 15.5 10.9 8.1 61 3.7 SSE 22 35 12 19 1026.7 1026.6 0.0
30/09:00pm 15.0 11.6 11.3 78 2.0 SE 20 30 11 16 1026.7 1026.6 0.0
30/08:30pm 15.6 11.8 9.8 68 3.0 SSE 20 28 11 15 1026.5 1026.4 0.0
30/08:00pm 15.4 10.6 8.9 65 3.3 SSE 24 35 13 19 1026.4 1026.3 0.0
30/07:30pm 15.6 11.1 8.5 62 3.6 SSE 22 32 12 17 1026.2 1026.1 0.0
30/07:00pm 15.7 11.7 9.1 65 3.4 SSE 20 32 11 17 1026.0 1025.9 0.0
30/06:30pm 15.2 11.3 9.6 69 2.9 SSE 20 33 11 18 1025.7 1025.6 0.0
30/06:00pm 15.6 11.9 9.6 67 3.1 SSE 19 26 10 14 1025.3 1025.1 0.0
30/05:30pm 15.4 11.4 9.2 66 3.2 SSE 20 33 11 18 1024.9 1024.7 0.0
30/05:00pm 15.9 11.5 8.9 63 3.6 SSE 22 33 12 18 1024.6 1024.4 0.0
30/04:30pm 15.7 11.5 8.2 61 3.8 SSE 20 32 11 17 1024.6 1024.4 0.0
30/04:00pm 15.9 10.3 7.0 55 4.4 SSE 26 35 14 19 1024.5 1024.3 0.0
30/03:30pm 16.2 11.8 8.8 61 3.8 S 22 33 12 18 1024.3 1024.1 0.0
30/03:00pm 16.8 11.6 8.8 59 4.1 SSE 26 33 14 18 1024.0 1023.8 0.0
30/02:30pm 16.7 11.9 7.5 54 4.6 S 22 35 12 19 1024.1 1023.9 0.0
30/02:00pm 16.8 11.6 7.4 54 4.7 SSE 24 37 13 20 1024.0 1023.8 0.0
30/01:30pm 17.5 12.5 9.7 60 4.1 SSE 26 39 14 21 1023.9 1023.7 0.0
30/01:00pm 17.2 11.6 8.9 58 4.3 S 28 37 15 20 1023.7 1023.5 0.0
30/12:30pm 17.5 12.2 9.9 61 4.0 SSE 28 35 15 19 1023.8 1023.6 0.0
30/12:00pm 17.0 11.9 10.6 66 3.4 S 28 44 15 24 1023.9 1023.7 0.0
30/11:30am 18.3 13.4 10.0 58 4.4 SSE 26 39 14 21 1024.0 1023.8 0.0
30/11:00am 17.6 12.4 8.7 56 4.6 S 26 35 14 19 1024.5 1024.3 0.0
30/10:30am 17.0 12.7 10.6 66 3.4 SSE 24 39 13 21 1024.4 1024.2 0.0
30/10:00am 17.1 12.5 9.7 61 3.9 S 24 33 13 18 1024.5 1024.3 0.0
30/09:30am 16.3 12.6 11.5 73 2.6 SSE 22 33 12 18 1024.7 1024.5 0.0
30/09:00am 16.9 12.7 11.2 69 3.1 S 24 32 13 17 1024.7 1024.5 0.0
30/08:30am 16.9 13.7 12.0 73 2.7 S 20 32 11 17 1024.5 1024.3 0.0
30/08:00am 17.7 14.7 12.7 72 2.8 S 20 30 11 16 1024.2 1024.0 0.2
30/07:30am 16.5 11.8 10.5 67 3.2 S 26 35 14 19 1024.1 1023.9 0.2
30/07:00am 16.8 13.5 11.5 71 2.9 S 20 37 11 20 1023.8 1023.6 0.2
30/06:30am 16.9 12.7 9.6 62 3.8 S 22 33 12 18 1023.6 1023.4 0.2
30/06:00am 16.1 12.6 10.9 71 2.8 S 20 30 11 16 1023.2 1023.0 0.2
30/05:30am 16.3 12.8 10.9 70 2.9 SW 20 32 11 17 1022.8 1022.6 0.2
30/05:00am 15.9 12.2 10.2 69 3.0 SW 20 28 11 15 1022.4 1022.3 0.2
30/04:30am 15.6 12.1 10.1 70 2.9 SW 19 28 10 15 1022.0 1021.9 0.2
30/04:00am 15.7 12.2 10.8 72 2.6 SW 20 32 11 17 1021.8 1021.7 0.2
30/03:30am 15.3 11.6 9.5 68 3.0 SSW 19 24 10 13 1021.5 1021.4 0.2
30/03:00am 15.0 11.7 9.4 69 2.9 SW 17 24 9 13 1021.4 1021.3 0.2
30/02:30am 14.9 12.0 9.7 71 2.7 SW 15 19 8 10 1021.4 1021.3 0.2
30/02:00am 15.2 12.1 8.9 66 3.2 SW 15 22 8 12 1021.5 1021.4 0.2
30/01:30am 15.0 12.0 9.2 68 3.0 SW 15 19 8 10 1021.7 1021.6 0.2
30/01:00am 15.3 11.9 9.1 66 3.2 SSW 17 26 9 14 1021.9 1021.8 0.2
30/12:30am 15.3 12.1 8.6 64 3.4 SSW 15 22 8 12 1022.2 1022.1 0.2
30/12:00am 15.0 12.5 8.3 64 3.4 SSW 11 17 6 9 1022.4 1022.3 0.2
 
Date/Time
EST
Temp
°C
App
Temp
°C
Dew
Point
°C
Rel
Hum
%
Delta-T
°C
Wind Press
QNH
hPa
Press
MSL
hPa
Rain since
9am
mm
Dir  Spd
km/h
Gust
km/h
Spd
kts
Gust
kts
29/11:30pm 15.2 11.3 7.3 59 3.9 S 17 20 9 11 1022.5 1022.4 0.2
29/11:00pm 15.4 11.7 7.8 60 3.8 S 17 24 9 13 1022.5 1022.4 0.2
29/10:30pm 15.3 11.5 7.7 60 3.8 S 17 26 9 14 1022.7 1022.5 0.2
29/10:00pm 15.4 11.1 6.8 56 4.2 S 19 24 10 13 1022.4 1022.3 0.2
29/09:30pm 15.6 11.6 8.1 61 3.8 S 19 28 10 15 1022.3 1022.2 0.2
29/09:00pm 15.5 11.2 7.7 59 3.9 S 20 28 11 15 1022.3 1022.2 0.2
29/08:30pm 15.4 11.9 7.1 57 4.1 S 15 26 8 14 1022.4 1022.3 0.2
29/08:00pm 15.6 11.5 7.8 59 3.9 S 19 30 10 16 1022.1 1022.0 0.2
29/07:30pm 15.3 11.9 7.7 60 3.8 S 15 26 8 14 1021.9 1021.8 0.2
29/07:00pm 15.5 11.1 6.5 55 4.4 S 19 30 10 16 1021.9 1021.8 0.2
29/06:30pm 15.3 11.5 7.7 60 3.8 S 17 32 9 17 1021.6 1021.5 0.2
29/06:00pm 15.6 11.9 7.8 59 3.9 S 17 28 9 15 1021.2 1021.1 0.2
29/05:30pm 15.8 12.3 8.8 63 3.6 S 17 26 9 14 1021.0 1020.9 0.2
29/05:00pm 15.8 12.5 9.4 65 3.3 S 17 26 9 14 1020.5 1020.4 0.2
29/04:30pm 16.1 11.7 9.1 63 3.6 S 22 32 12 17 1020.1 1020.0 0.2
29/04:00pm 16.4 12.5 9.3 63 3.7 S 20 32 11 17 1019.8 1019.7 0.2
29/03:30pm 16.8 13.1 10.0 64 3.6 S 20 33 11 18 1019.7 1019.6 0.2
29/03:00pm 17.1 13.1 10.3 64 3.6 S 22 33 12 18 1019.3 1019.2 0.2
29/02:30pm 17.4 13.1 11.9 70 3.0 SSE 26 35 14 19 1019.0 1018.9 0.2
29/02:00pm 18.0 13.3 10.8 63 3.9 S 26 39 14 21 1018.7 1018.6 0.2
29/01:30pm 17.9 14.6 11.7 67 3.4 SSE 20 32 11 17 1018.6 1018.5 0.2
29/01:00pm 17.8 13.9 12.0 69 3.2 SSE 24 33 13 18 1018.6 1018.5 0.2
29/12:30pm 18.3 15.0 12.8 70 3.1 S 22 30 12 16 1018.7 1018.6 0.2
29/12:00pm 17.9 14.4 12.3 70 3.1 SSE 22 32 12 17 1018.7 1018.6 0.2
29/11:30am 18.5 15.1 12.6 68 3.3 S 22 32 12 17 1018.9 1018.8 0.2
29/11:00am 18.5 15.2 12.8 69 3.2 S 22 32 12 17 1019.0 1018.9 0.2
29/10:30am 18.2 14.9 12.9 71 3.0 S 22 30 12 16 1019.1 1019.0 0.0

Other Formats:

Comma delimited format used in spreadsheet applications
http://www.bom.gov.au/fwo/IDN60801/IDN60801.94996.axf

JavaScript Object Notation format (JSON) in row-major order
http://www.bom.gov.au/fwo/IDN60801/IDN60801.94996.json